createdAt,value
2022-12-28T00:00:10.555Z,19.00
2022-12-28T00:02:39.830Z,19.00
2022-12-28T00:05:09.515Z,19.00
2022-12-28T00:07:38.745Z,19.10
2022-12-28T00:10:08.654Z,19.00
2022-12-28T00:12:37.924Z,19.10
2022-12-28T00:15:07.697Z,19.10
2022-12-28T00:17:36.871Z,19.10
2022-12-28T00:20:06.691Z,19.10
2022-12-28T00:22:35.931Z,19.10
2022-12-28T00:25:05.350Z,19.10
2022-12-28T00:27:34.825Z,19.10
2022-12-28T00:30:04.369Z,19.10
2022-12-28T00:32:33.716Z,19.10
2022-12-28T00:35:02.888Z,19.10
2022-12-28T00:37:34.127Z,19.20
2022-12-28T00:40:03.607Z,19.20
2022-12-28T00:42:32.773Z,19.20
2022-12-28T00:45:02.000Z,19.30
2022-12-28T00:47:31.172Z,19.40
2022-12-28T00:50:00.362Z,19.40
2022-12-28T00:52:29.620Z,19.40
2022-12-28T00:54:58.823Z,19.50
2022-12-28T00:57:28.071Z,19.50
2022-12-28T00:59:57.302Z,19.60
2022-12-28T01:02:26.548Z,19.60
2022-12-28T01:04:55.737Z,19.70
2022-12-28T01:07:24.894Z,19.80
2022-12-28T01:09:54.096Z,19.90
2022-12-28T01:12:23.415Z,20.00
2022-12-28T01:14:52.636Z,20.10
2022-12-28T01:17:21.898Z,20.20
2022-12-28T01:19:54.057Z,20.30
2022-12-28T01:22:23.786Z,20.40
2022-12-28T01:24:53.042Z,20.50
2022-12-28T01:27:23.147Z,20.60
2022-12-28T01:29:58.560Z,20.70
2022-12-28T01:32:27.820Z,20.80
2022-12-28T01:35:02.164Z,20.90
2022-12-28T01:37:31.388Z,20.90
2022-12-28T01:40:05.252Z,21.00
2022-12-28T01:42:34.386Z,21.10
2022-12-28T01:45:25.127Z,21.20
2022-12-28T01:47:57.710Z,21.20
2022-12-28T01:50:30.825Z,21.30
2022-12-28T01:53:06.453Z,21.40
2022-12-28T01:55:47.916Z,21.50
2022-12-28T01:58:30.724Z,21.60
2022-12-28T02:01:01.504Z,21.60
2022-12-28T02:03:34.070Z,21.60
2022-12-28T02:06:09.691Z,21.70
2022-12-28T02:09:36.171Z,21.70
2022-12-28T02:12:05.885Z,21.80
2022-12-28T02:14:38.275Z,21.80
2022-12-28T02:17:13.559Z,21.90
2022-12-28T02:19:49.915Z,21.90
2022-12-28T02:23:16.943Z,22.00
2022-12-28T02:26:39.872Z,22.00
2022-12-28T02:29:32.991Z,22.10
2022-12-28T02:32:23.297Z,22.20
2022-12-28T02:35:09.864Z,22.20
2022-12-28T02:37:48.698Z,22.30
2022-12-28T02:40:31.517Z,22.40
2022-12-28T02:43:08.266Z,22.50
2022-12-28T02:46:07.935Z,22.60
2022-12-28T02:49:07.029Z,22.70
2022-12-28T02:51:46.433Z,22.80
2022-12-28T02:55:21.073Z,22.90
2022-12-28T02:58:24.758Z,22.90
2022-12-28T03:01:27.363Z,23.10
2022-12-28T03:04:05.407Z,23.20
2022-12-28T03:08:17.402Z,23.30
2022-12-28T03:11:05.162Z,23.30
2022-12-28T03:13:52.873Z,23.50
2022-12-28T03:16:30.264Z,23.60
2022-12-28T03:19:29.917Z,23.70
2022-12-28T03:22:18.769Z,23.80
2022-12-28T03:25:07.817Z,23.90
2022-12-28T03:27:57.423Z,24.00
2022-12-28T03:30:45.173Z,24.10
2022-12-28T03:33:15.226Z,24.20
2022-12-28T03:36:18.193Z,24.30
2022-12-28T03:39:18.446Z,24.40
2022-12-28T03:42:28.291Z,24.40
2022-12-28T03:45:10.983Z,24.50
2022-12-28T03:47:44.046Z,24.60
2022-12-28T03:50:15.510Z,24.60
2022-12-28T03:52:44.942Z,24.70
2022-12-28T03:55:17.234Z,24.70
2022-12-28T03:57:46.495Z,24.80
2022-12-28T04:00:16.155Z,24.80
2022-12-28T04:02:45.717Z,24.90
2022-12-28T04:05:16.430Z,25.00
2022-12-28T04:07:45.841Z,25.10
2022-12-28T04:10:15.369Z,25.10
2022-12-28T04:12:44.650Z,25.30
2022-12-28T04:15:13.992Z,25.30
2022-12-28T04:17:43.195Z,25.50
2022-12-28T04:20:12.592Z,25.60
2022-12-28T04:22:41.861Z,25.70
2022-12-28T04:25:11.314Z,25.80
2022-12-28T04:27:40.502Z,25.90
2022-12-28T04:30:10.549Z,26.00
2022-12-28T04:32:39.830Z,26.10
2022-12-28T04:35:09.348Z,26.10
2022-12-28T04:37:41.700Z,26.20
2022-12-28T04:40:12.335Z,26.30
2022-12-28T04:42:41.857Z,26.40
2022-12-28T04:45:13.669Z,26.50
2022-12-28T04:47:44.878Z,26.60
2022-12-28T04:50:13.962Z,26.70
2022-12-28T04:52:43.527Z,26.80
2022-12-28T04:55:32.713Z,26.80
2022-12-28T04:58:03.008Z,26.90
2022-12-28T05:00:32.387Z,27.10
2022-12-28T05:03:02.028Z,27.20
2022-12-28T05:05:32.552Z,27.30
2022-12-28T05:08:05.113Z,27.40
2022-12-28T05:10:34.317Z,27.40
2022-12-28T05:13:03.505Z,27.50
2022-12-28T05:15:32.610Z,27.60
2022-12-28T05:18:01.743Z,27.80
2022-12-28T05:20:30.798Z,27.90
2022-12-28T05:22:59.884Z,28.00
2022-12-28T05:25:29.080Z,28.10
2022-12-28T05:27:58.166Z,28.20
2022-12-28T05:30:27.452Z,28.30
2022-12-28T05:32:56.585Z,28.40
2022-12-28T05:35:25.674Z,28.50
2022-12-28T05:37:54.848Z,28.60
2022-12-28T05:40:24.392Z,28.80
2022-12-28T05:42:53.485Z,28.90
2022-12-28T05:45:22.713Z,29.00
2022-12-28T05:47:51.875Z,29.10
2022-12-28T05:50:20.964Z,29.10
2022-12-28T05:52:50.195Z,29.10
2022-12-28T05:55:19.453Z,29.10
2022-12-28T05:57:48.659Z,29.10
2022-12-28T06:00:18.487Z,29.20
2022-12-28T06:02:47.887Z,29.30
2022-12-28T06:05:17.113Z,29.40
2022-12-28T06:07:46.257Z,29.50
2022-12-28T06:10:15.324Z,29.60
2022-12-28T06:12:44.761Z,29.80
2022-12-28T06:15:13.912Z,29.90
2022-12-28T06:17:43.008Z,29.90
2022-12-28T06:20:13.066Z,29.90
2022-12-28T06:22:42.155Z,29.90
2022-12-28T06:25:11.796Z,29.90
2022-12-28T06:27:41.132Z,29.90
2022-12-28T06:30:11.427Z,29.90
2022-12-28T06:32:40.577Z,29.80
2022-12-28T06:35:10.199Z,29.80
2022-12-28T06:37:39.341Z,29.90
2022-12-28T06:40:10.489Z,29.90
2022-12-28T06:42:39.614Z,29.90
2022-12-28T06:45:09.814Z,30.00
2022-12-28T06:47:38.974Z,30.00
2022-12-28T06:50:08.765Z,30.10
2022-12-28T06:52:37.876Z,30.20
2022-12-28T06:55:07.579Z,30.20
2022-12-28T06:57:36.743Z,30.30
2022-12-28T07:00:08.054Z,30.40
2022-12-28T07:02:37.354Z,30.40
2022-12-28T07:05:06.943Z,30.50
2022-12-28T07:07:36.239Z,30.50
2022-12-28T07:10:05.682Z,30.60
2022-12-28T07:12:34.758Z,30.60
2022-12-28T07:15:03.890Z,30.70
2022-12-28T07:17:33.188Z,30.80
2022-12-28T07:20:02.450Z,30.80
2022-12-28T07:22:31.598Z,30.80
2022-12-28T07:25:00.794Z,30.80
2022-12-28T07:27:29.880Z,30.70
2022-12-28T07:29:59.110Z,30.70
2022-12-28T07:32:28.221Z,30.70
2022-12-28T07:34:57.462Z,30.70
2022-12-28T07:37:26.621Z,30.70
2022-12-28T07:39:56.067Z,30.60
2022-12-28T07:42:25.855Z,30.60
2022-12-28T07:44:55.029Z,30.50
2022-12-28T07:47:24.336Z,30.50
2022-12-28T07:49:53.546Z,30.50
2022-12-28T07:52:22.774Z,30.50
2022-12-28T07:54:52.046Z,30.50
2022-12-28T07:57:21.304Z,30.60
2022-12-28T07:59:50.557Z,30.70
2022-12-28T08:02:19.854Z,30.70
2022-12-28T08:04:52.163Z,30.80
2022-12-28T08:07:21.898Z,30.80
2022-12-28T08:09:51.270Z,30.80
2022-12-28T08:12:20.635Z,30.80
2022-12-28T08:14:49.809Z,30.80
2022-12-28T08:17:21.149Z,30.80
2022-12-28T08:19:51.122Z,30.70
2022-12-28T08:22:20.332Z,30.70
2022-12-28T08:24:49.548Z,30.60
2022-12-28T08:27:18.790Z,30.60
2022-12-28T08:29:48.016Z,30.60
2022-12-28T08:32:17.252Z,30.60
2022-12-28T08:34:46.472Z,30.60
2022-12-28T08:37:16.373Z,30.60
2022-12-28T08:39:46.165Z,30.60
2022-12-28T08:42:15.635Z,30.70
2022-12-28T08:44:44.868Z,30.70
2022-12-28T08:47:14.086Z,30.70
2022-12-28T08:49:45.481Z,30.60
2022-12-28T08:52:14.728Z,30.60
2022-12-28T08:54:43.960Z,30.60
2022-12-28T08:57:13.214Z,30.60
2022-12-28T08:59:42.410Z,30.60
2022-12-28T09:02:15.549Z,30.50
2022-12-28T09:04:45.927Z,30.50
2022-12-28T09:07:15.141Z,30.50
2022-12-28T09:09:44.422Z,30.50
2022-12-28T09:12:13.607Z,30.60
2022-12-28T09:14:42.788Z,30.60
2022-12-28T09:17:12.011Z,30.60
2022-12-28T09:19:41.344Z,30.60
2022-12-28T09:22:10.516Z,30.60
2022-12-28T09:24:39.759Z,30.50
2022-12-28T09:27:08.912Z,30.50
2022-12-28T09:29:38.167Z,30.40
2022-12-28T09:32:07.402Z,30.40
2022-12-28T09:34:38.158Z,30.30
2022-12-28T09:37:09.558Z,30.30
2022-12-28T09:39:39.250Z,30.20
2022-12-28T09:42:24.971Z,30.10
2022-12-28T09:45:13.716Z,30.10
2022-12-28T09:47:53.576Z,30.00
2022-12-28T09:50:34.210Z,29.90
2022-12-28T09:53:31.840Z,29.70
2022-12-28T09:56:08.081Z,29.60
2022-12-28T09:58:48.030Z,29.50
2022-12-28T10:01:21.074Z,29.50
2022-12-28T10:03:51.158Z,29.40
2022-12-28T10:06:36.165Z,29.40
2022-12-28T10:09:14.827Z,29.40
2022-12-28T10:11:45.971Z,29.30
2022-12-28T10:14:35.441Z,29.30
2022-12-28T10:17:07.458Z,29.30
2022-12-28T10:19:36.734Z,29.30
2022-12-28T10:22:20.921Z,29.20
2022-12-28T10:24:50.698Z,29.10
2022-12-28T10:27:32.862Z,29.00
2022-12-28T10:30:07.855Z,28.90
2022-12-28T10:33:03.612Z,28.80
2022-12-28T10:35:44.353Z,28.80
2022-12-28T10:38:36.128Z,28.70
2022-12-28T10:41:08.692Z,28.50
2022-12-28T10:43:54.219Z,28.50
2022-12-28T10:46:37.029Z,28.40
2022-12-28T10:49:10.980Z,28.30
2022-12-28T10:52:20.890Z,28.20
2022-12-28T10:55:07.435Z,28.20
2022-12-28T10:57:38.005Z,28.00
2022-12-28T11:00:39.748Z,27.90
2022-12-28T11:03:32.494Z,27.80
2022-12-28T11:06:27.146Z,27.80
2022-12-28T11:09:32.152Z,27.70
2022-12-28T11:12:30.037Z,27.60
2022-12-28T11:14:59.251Z,27.50
2022-12-28T11:20:22.129Z,27.30
2022-12-28T11:22:51.910Z,27.20
2022-12-28T11:25:27.974Z,27.10
2022-12-28T11:27:57.729Z,27.00
2022-12-28T11:30:27.384Z,26.90
2022-12-28T11:33:03.257Z,26.80
2022-12-28T11:35:38.738Z,26.60
2022-12-28T11:38:13.039Z,26.50
2022-12-28T11:40:46.350Z,26.40
2022-12-28T11:46:23.010Z,26.20
2022-12-28T11:49:33.124Z,26.10
2022-12-28T11:52:28.415Z,26.00
2022-12-28T11:55:04.020Z,25.90
2022-12-28T11:57:44.124Z,25.90
2022-12-28T12:00:23.764Z,25.80
2022-12-28T12:03:03.237Z,25.70
2022-12-28T12:05:41.599Z,25.70
2022-12-28T12:08:17.052Z,25.60
2022-12-28T12:10:51.312Z,25.60
2022-12-28T12:13:29.664Z,25.50
2022-12-28T12:16:18.786Z,25.50
2022-12-28T12:18:55.698Z,25.50
2022-12-28T12:21:39.303Z,25.40
2022-12-28T12:24:28.980Z,25.40
2022-12-28T12:27:12.282Z,25.40
2022-12-28T12:29:54.392Z,25.40
2022-12-28T12:32:44.003Z,25.40
2022-12-28T12:35:50.386Z,25.40
2022-12-28T12:39:11.133Z,25.30
2022-12-28T12:42:18.428Z,25.30
2022-12-28T12:45:03.995Z,25.30
2022-12-28T12:48:11.296Z,25.30
2022-12-28T12:51:13.246Z,25.30
2022-12-28T12:54:00.182Z,25.30
2022-12-28T12:56:46.462Z,25.30
2022-12-28T12:59:45.927Z,25.20
2022-12-28T13:02:30.862Z,25.20
2022-12-28T13:05:04.454Z,25.10
2022-12-28T13:07:35.103Z,25.10
2022-12-28T13:10:06.670Z,25.00
2022-12-28T13:12:37.494Z,25.00
2022-12-28T13:15:12.666Z,24.90
2022-12-28T13:23:53.812Z,24.80
2022-12-28T13:26:31.215Z,24.80
2022-12-28T13:29:09.835Z,24.70
2022-12-28T13:31:50.484Z,24.70
2022-12-28T13:34:36.988Z,24.70
2022-12-28T13:37:17.220Z,24.60
2022-12-28T13:39:48.798Z,24.60
2022-12-28T13:42:47.729Z,24.60
2022-12-28T13:45:21.146Z,24.50
2022-12-28T13:47:54.414Z,24.50
2022-12-28T13:50:31.163Z,24.40
2022-12-28T13:53:15.522Z,24.40
2022-12-28T13:56:08.954Z,24.30
2022-12-28T13:58:50.963Z,24.30
2022-12-28T14:01:27.636Z,24.20
2022-12-28T14:04:50.397Z,24.10
2022-12-28T14:06:57.728Z,24.10
2022-12-28T14:09:27.403Z,24.00
2022-12-28T14:11:58.195Z,24.00
2022-12-28T14:14:27.655Z,23.90
2022-12-28T14:16:57.942Z,23.90
2022-12-28T14:19:27.278Z,23.80
2022-12-28T14:21:59.359Z,23.70
2022-12-28T14:24:28.674Z,23.70
2022-12-28T14:27:27.095Z,23.60
2022-12-28T14:29:59.109Z,23.60
2022-12-28T14:32:28.523Z,23.50
2022-12-28T14:35:02.665Z,23.40
2022-12-28T14:37:42.000Z,23.40
2022-12-28T14:40:31.201Z,23.40
2022-12-28T14:43:11.579Z,23.30
2022-12-28T14:46:07.717Z,23.30
2022-12-28T14:48:43.210Z,23.20
2022-12-28T14:51:18.499Z,23.20
2022-12-28T14:54:26.540Z,23.20
2022-12-28T14:57:02.573Z,23.10
2022-12-28T14:59:46.160Z,23.00
2022-12-28T15:02:36.978Z,23.00
2022-12-28T15:05:26.493Z,22.90
2022-12-28T15:07:55.666Z,22.90
2022-12-28T15:10:24.839Z,22.90
2022-12-28T15:12:55.128Z,22.80
2022-12-28T15:15:24.669Z,22.80
2022-12-28T15:17:53.887Z,22.80
2022-12-28T15:20:23.235Z,22.70
2022-12-28T15:22:52.670Z,22.70
2022-12-28T15:25:22.013Z,22.70
2022-12-28T15:27:53.774Z,22.70
2022-12-28T15:33:06.065Z,22.60
2022-12-28T15:35:35.258Z,22.60
2022-12-28T15:38:05.109Z,22.60
2022-12-28T15:40:34.795Z,22.60
2022-12-28T15:43:04.389Z,22.50
2022-12-28T15:45:33.620Z,22.50
2022-12-28T15:48:06.024Z,22.50
2022-12-28T15:53:19.421Z,22.50
2022-12-28T15:56:04.389Z,22.40
2022-12-28T15:58:33.664Z,22.40
2022-12-28T16:01:02.974Z,22.40
2022-12-28T16:03:32.388Z,22.30
2022-12-28T16:06:01.947Z,22.30
2022-12-28T16:08:31.146Z,22.30
2022-12-28T16:11:17.369Z,22.30
2022-12-28T16:13:53.441Z,22.30
2022-12-28T16:16:24.029Z,22.30
2022-12-28T16:18:58.479Z,22.30
2022-12-28T16:21:29.632Z,22.30
2022-12-28T16:24:01.305Z,22.30
2022-12-28T16:26:30.828Z,22.40
2022-12-28T16:29:02.647Z,22.30
2022-12-28T16:31:35.941Z,22.30
2022-12-28T16:34:18.268Z,22.30
2022-12-28T16:36:48.837Z,22.40
2022-12-28T16:39:19.774Z,22.30
2022-12-28T16:41:49.289Z,22.30
2022-12-28T16:44:24.627Z,22.30
2022-12-28T16:46:59.761Z,22.30
2022-12-28T16:49:30.940Z,22.30
2022-12-28T16:52:00.422Z,22.30
2022-12-28T16:54:30.199Z,22.20
2022-12-28T16:56:59.684Z,22.20
2022-12-28T16:59:31.048Z,22.20
2022-12-28T17:02:01.157Z,22.20
2022-12-28T17:04:30.706Z,22.20
2022-12-28T17:07:00.552Z,22.10
2022-12-28T17:09:29.785Z,22.10
2022-12-28T17:14:41.811Z,22.10
2022-12-28T17:17:11.150Z,22.00
2022-12-28T17:19:40.371Z,22.00
2022-12-28T17:22:09.604Z,22.00
2022-12-28T17:24:39.008Z,21.90
2022-12-28T17:27:10.886Z,21.90
2022-12-28T17:29:45.128Z,21.90
2022-12-28T17:32:14.360Z,21.90
2022-12-28T17:34:43.703Z,21.90
2022-12-28T17:37:12.929Z,21.90
2022-12-28T17:39:43.529Z,21.90
2022-12-28T17:42:12.811Z,21.90
2022-12-28T17:44:42.079Z,21.90
2022-12-28T17:47:11.438Z,21.80
2022-12-28T17:49:40.684Z,21.80
2022-12-28T17:52:09.959Z,21.80
2022-12-28T17:54:39.172Z,21.80
2022-12-28T17:57:08.425Z,21.80
2022-12-28T17:59:37.765Z,21.80
2022-12-28T18:02:10.932Z,21.80
2022-12-28T18:04:41.900Z,21.70
2022-12-28T18:07:11.104Z,21.70
2022-12-28T18:09:42.019Z,21.70
2022-12-28T18:12:11.369Z,21.70
2022-12-28T18:14:40.589Z,21.60
2022-12-28T18:17:09.931Z,21.60
2022-12-28T18:19:39.795Z,21.60
2022-12-28T18:22:08.980Z,21.50
2022-12-28T18:24:38.339Z,21.50
2022-12-28T18:27:07.506Z,21.40
2022-12-28T18:29:36.744Z,21.40
2022-12-28T18:32:06.197Z,21.40
2022-12-28T18:34:35.367Z,21.30
2022-12-28T18:37:04.640Z,21.30
2022-12-28T18:39:34.551Z,21.30
2022-12-28T18:42:05.188Z,21.30
2022-12-28T18:44:34.397Z,21.20
2022-12-28T18:47:03.543Z,21.20
2022-12-28T18:49:32.647Z,21.20
2022-12-28T18:52:02.289Z,21.20
2022-12-28T18:54:31.489Z,21.10
2022-12-28T18:57:02.461Z,21.10
2022-12-28T18:59:31.724Z,21.10
2022-12-28T19:02:11.867Z,21.10
2022-12-28T19:04:44.535Z,21.10
2022-12-28T19:07:13.701Z,21.10
2022-12-28T19:10:08.087Z,21.10
2022-12-28T19:12:42.604Z,21.10
2022-12-28T19:15:12.734Z,21.00
2022-12-28T19:17:44.155Z,21.00
2022-12-28T19:20:13.642Z,21.00
2022-12-28T19:22:42.806Z,20.90
2022-12-28T19:25:12.144Z,20.90
2022-12-28T19:27:41.332Z,20.80
2022-12-28T19:30:11.452Z,20.80
2022-12-28T19:32:40.694Z,20.70
2022-12-28T19:35:11.774Z,20.70
2022-12-28T19:37:40.978Z,20.60
2022-12-28T19:40:11.204Z,20.60
2022-12-28T19:42:40.365Z,20.60
2022-12-28T19:45:10.644Z,20.60
2022-12-28T19:47:40.059Z,20.60
2022-12-28T19:50:09.874Z,20.50
2022-12-28T19:52:39.067Z,20.50
2022-12-28T19:55:08.784Z,20.50
2022-12-28T19:57:39.886Z,20.50
2022-12-28T20:00:10.844Z,20.50
2022-12-28T20:02:40.101Z,20.50
2022-12-28T20:05:10.081Z,20.50
2022-12-28T20:07:40.960Z,20.50
2022-12-28T20:10:10.597Z,20.40
2022-12-28T20:12:39.798Z,20.50
2022-12-28T20:15:09.630Z,20.40
2022-12-28T20:17:38.929Z,20.40
2022-12-28T20:20:08.746Z,20.40
2022-12-28T20:22:41.825Z,20.40
2022-12-28T20:25:11.660Z,20.40
2022-12-28T20:27:40.855Z,20.40
2022-12-28T20:30:10.715Z,20.40
2022-12-28T20:32:44.536Z,20.40
2022-12-28T20:35:14.153Z,20.40
2022-12-28T20:37:43.350Z,20.40
2022-12-28T20:40:13.933Z,20.40
2022-12-28T20:43:01.488Z,20.40
2022-12-28T20:45:35.685Z,20.40
2022-12-28T20:48:04.902Z,20.40
2022-12-28T20:50:33.989Z,20.40
2022-12-28T20:53:03.114Z,20.40
2022-12-28T20:55:32.259Z,20.40
2022-12-28T20:58:01.422Z,20.40
2022-12-28T21:00:30.781Z,20.30
2022-12-28T21:03:00.551Z,20.30
2022-12-28T21:05:29.683Z,20.30
2022-12-28T21:07:58.839Z,20.20
2022-12-28T21:10:28.509Z,20.20
2022-12-28T21:12:57.719Z,20.10
2022-12-28T21:15:26.843Z,20.10
2022-12-28T21:17:56.067Z,20.10
2022-12-28T21:20:25.240Z,20.10
2022-12-28T21:22:55.260Z,20.00
2022-12-28T21:25:24.419Z,20.00
2022-12-28T21:27:53.618Z,20.00
2022-12-28T21:30:22.772Z,20.00
2022-12-28T21:32:51.979Z,19.90
2022-12-28T21:35:21.277Z,19.90
2022-12-28T21:37:50.429Z,19.90
2022-12-28T21:40:19.776Z,19.80
2022-12-28T21:42:49.417Z,19.80
2022-12-28T21:45:18.798Z,19.70
2022-12-28T21:47:47.999Z,19.70
2022-12-28T21:50:17.235Z,19.70
2022-12-28T21:52:46.456Z,19.70
2022-12-28T21:55:33.997Z,19.60
2022-12-28T21:58:03.183Z,19.60
2022-12-28T22:00:50.777Z,19.50
2022-12-28T22:03:38.386Z,19.50
2022-12-28T22:06:10.559Z,19.50
2022-12-28T22:08:57.929Z,19.40
2022-12-28T22:11:45.144Z,19.30
2022-12-28T22:14:14.373Z,19.20
2022-12-28T22:16:43.602Z,19.20
2022-12-28T22:19:12.830Z,19.20
2022-12-28T22:21:42.453Z,19.10
2022-12-28T22:24:11.650Z,19.10
2022-12-28T22:26:40.822Z,19.00
2022-12-28T22:29:10.363Z,18.90
2022-12-28T22:31:42.724Z,18.90
2022-12-28T22:34:12.137Z,18.90
2022-12-28T22:36:41.412Z,18.80
2022-12-28T22:39:10.634Z,18.80
2022-12-28T22:41:41.622Z,18.80
2022-12-28T22:44:12.164Z,18.80
2022-12-28T22:46:41.328Z,18.80
2022-12-28T22:49:10.438Z,18.80
2022-12-28T22:51:39.641Z,18.70
2022-12-28T22:54:09.244Z,18.70
2022-12-28T22:56:38.327Z,18.60
2022-12-28T22:59:13.655Z,18.60
2022-12-28T23:01:45.148Z,18.60
2022-12-28T23:04:14.331Z,18.60
2022-12-28T23:06:43.590Z,18.60
2022-12-28T23:09:13.029Z,18.60
2022-12-28T23:11:42.217Z,18.50
2022-12-28T23:14:42.744Z,18.50
2022-12-28T23:17:16.638Z,18.50
2022-12-28T23:20:06.001Z,18.50
2022-12-28T23:23:11.541Z,18.50
2022-12-28T23:26:01.185Z,18.50
2022-12-28T23:28:30.988Z,18.40
2022-12-28T23:31:00.218Z,18.50
2022-12-28T23:33:29.403Z,18.40
2022-12-28T23:36:03.875Z,18.40
2022-12-28T23:38:34.330Z,18.40
2022-12-28T23:41:26.776Z,18.40
2022-12-28T23:43:56.008Z,18.40
2022-12-28T23:46:25.331Z,18.30
2022-12-28T23:48:57.169Z,18.30
2022-12-28T23:51:26.434Z,18.30
2022-12-28T23:53:55.675Z,18.30
2022-12-28T23:56:25.929Z,18.30
2022-12-28T23:58:55.160Z,18.30
